Shellbrook, Canada
Current Conditions -  °F | °C
As of 2:00 PM on Thursday 23 Oct 2014 (Local Time) from CYPA Reporting Station
Scattered Clouds Scattered Clouds  
Wind Chill: 50°   Ceiling: Unl
Heat Index: 50°   Visibility: 15mi
Dew Point: 46°   Wind: 9mph
Humidity: 87%   Direction: 110°ESE
Pressure: 29.55"   Gusts: NA
Location:  53.22°N, 106.4°W
Report Text: CYPA 232000Z 11008KT 15SM FEW006 FEW120 SCT250 10/08 A2955 RMK ST1AC1CI3 ST TR SLP024 DENSITY ALT 1600FT
Loading
Personal Weather Stations






























Interactive Weather Map
Tropical Storm Tracking
New forecast layout! Learn more

10-Day Weather Forecast

Advertisements
Track Severe Weather on mobile